Time;durP1;ratioP1;P1;durP2;ratioP2;P2;SDS_P1;SDS_P2;PMS_P1;PMS_P2;Temp;Humidity;BMP_temperature;BMP_pressure;BME280_temperature;BME280_humidity;BME280_pressure;Samples;Min_cycle;Max_cycle;Signal;HPM_P1;HPM_P2
2024/04/10 00:01:20;;;;;;;8.55;1.23;;;10.40;99.90;;;;;;5459118;25;19998;-72
2024/04/10 00:03:46;;;;;;;7.35;2.20;;;10.30;99.90;;;;;;5442493;25;20461;-74
2024/04/10 00:06:12;;;;;;;4.65;1.00;;;10.30;99.90;;;;;;5454767;25;19994;-73
2024/04/10 00:08:37;;;;;;;4.15;1.00;;;10.20;99.90;;;;;;5449052;25;20003;-74
2024/04/10 00:11:03;;;;;;;6.20;1.00;;;10.20;99.90;;;;;;5429320;25;20009;-73
2024/04/10 00:13:30;;;;;;;6.15;1.10;;;10.20;99.90;;;;;;5443647;26;20493;-74
2024/04/10 00:16:06;;;;;;;11.77;1.73;;;10.20;99.90;;;;;;5452817;26;20000;-73
2024/04/10 00:18:35;;;;;;;8.38;1.95;;;10.10;99.90;;;;;;5444968;25;20007;-74
2024/04/10 00:21:01;;;;;;;7.93;1.55;;;10.00;99.90;;;;;;5454504;25;20009;-72
2024/04/10 00:23:27;;;;;;;14.60;2.95;;;9.90;99.90;;;;;;5458464;26;20022;-74
2024/04/10 00:25:57;;;;;;;6.75;1.10;;;9.90;99.90;;;;;;5455321;26;20000;-73
2024/04/10 00:28:24;;;;;;;16.00;1.23;;;9.90;99.90;;;;;;5445722;25;20003;-73
2024/04/10 00:30:50;;;;;;;11.50;2.10;;;9.80;99.90;;;;;;5428736;26;20003;-73
2024/04/10 00:33:16;;;;;;;10.65;1.42;;;9.80;99.90;;;;;;5453695;25;20515;-78
2024/04/10 00:35:42;;;;;;;12.57;2.55;;;9.70;99.90;;;;;;5449154;26;20070;-72
2024/04/10 00:38:07;;;;;;;13.30;1.38;;;9.60;99.90;;;;;;5432662;25;20071;-74
2024/04/10 00:40:33;;;;;;;10.90;1.98;;;9.60;99.90;;;;;;5452083;26;20007;-73
2024/04/10 00:43:02;;;;;;;8.10;1.52;;;9.60;99.90;;;;;;5459669;26;19998;-70
2024/04/10 00:45:29;;;;;;;8.82;1.73;;;9.60;99.90;;;;;;5449971;26;20078;-74
2024/04/10 00:47:54;;;;;;;6.80;1.15;;;9.60;99.90;;;;;;5446783;25;20010;-74
2024/04/10 00:50:20;;;;;;;5.45;1.25;;;9.60;99.90;;;;;;5465817;25;19998;-73
2024/04/10 00:52:47;;;;;;;8.18;2.22;;;9.60;99.90;;;;;;5457977;26;20007;-73
2024/04/10 00:55:15;;;;;;;8.35;2.40;;;9.50;99.90;;;;;;5467249;25;20009;-76
2024/04/10 00:57:42;;;;;;;5.68;1.00;;;9.50;99.90;;;;;;5452186;26;20012;-74
2024/04/10 01:00:08;;;;;;;13.63;1.92;;;9.50;99.90;;;;;;5450427;25;20012;-73
2024/04/10 01:02:33;;;;;;;8.25;1.73;;;9.50;99.90;;;;;;5453258;26;20016;-74
2024/04/10 01:04:59;;;;;;;7.15;1.38;;;9.50;99.90;;;;;;5430463;26;20038;-72
2024/04/10 01:07:24;;;;;;;6.40;1.60;;;9.50;99.90;;;;;;5446656;25;20361;-72
2024/04/10 01:09:50;;;;;;;4.38;1.13;;;9.50;99.90;;;;;;5462053;25;20007;-74
2024/04/10 01:12:16;;;;;;;7.60;1.70;;;9.50;99.90;;;;;;5459393;25;19994;-74
2024/04/10 01:14:41;;;;;;;6.72;1.33;;;9.50;99.90;;;;;;5459236;25;20075;-74
2024/04/10 01:17:07;;;;;;;8.63;1.92;;;9.40;99.90;;;;;;5453800;26;20019;-73
2024/04/10 01:19:33;;;;;;;10.50;2.00;;;9.40;99.90;;;;;;5459227;26;20577;-75
2024/04/10 01:21:59;;;;;;;12.55;2.03;;;9.40;99.90;;;;;;5459606;25;20009;-70
2024/04/10 01:24:24;;;;;;;9.00;1.67;;;9.40;99.90;;;;;;5448442;26;19998;-74
2024/04/10 01:26:50;;;;;;;5.63;1.55;;;9.40;99.90;;;;;;5450872;26;20012;-73
2024/04/10 01:29:15;;;;;;;9.13;1.75;;;9.40;99.90;;;;;;5449232;26;20100;-74
2024/04/10 01:31:41;;;;;;;8.52;2.10;;;9.40;99.90;;;;;;5452113;25;20076;-73
2024/04/10 01:34:07;;;;;;;5.75;1.23;;;9.40;99.90;;;;;;5465430;25;20013;-73
2024/04/10 01:36:32;;;;;;;9.98;1.88;;;9.40;99.90;;;;;;5455735;26;20344;-75
2024/04/10 01:38:58;;;;;;;6.38;1.90;;;9.40;99.90;;;;;;5467460;25;19994;-74
2024/04/10 01:41:24;;;;;;;8.48;1.65;;;9.40;99.90;;;;;;5442839;25;19999;-73
2024/04/10 01:43:51;;;;;;;7.70;1.75;;;9.40;99.90;;;;;;5446399;25;20064;-74
2024/04/10 01:46:17;;;;;;;7.43;1.30;;;9.40;99.90;;;;;;5460877;25;20009;-74
2024/04/10 01:48:42;;;;;;;7.22;1.48;;;9.40;99.90;;;;;;5457666;25;19998;-72
2024/04/10 01:51:08;;;;;;;18.95;2.58;;;9.40;99.90;;;;;;5463899;25;20008;-73
2024/04/10 01:53:34;;;;;;;10.52;2.08;;;9.40;99.90;;;;;;5459968;26;20523;-75
2024/04/10 01:55:59;;;;;;;8.63;2.10;;;9.40;99.90;;;;;;5463746;25;20002;-71
2024/04/10 01:58:25;;;;;;;10.75;2.80;;;9.40;99.90;;;;;;5445200;26;20743;-73
2024/04/10 02:00:51;;;;;;;9.82;2.50;;;9.40;99.90;;;;;;5464935;25;20441;-74
2024/04/10 02:03:16;;;;;;;5.03;1.63;;;9.40;99.90;;;;;;5446576;25;20003;-74
2024/04/10 02:05:42;;;;;;;15.77;2.30;;;9.40;99.90;;;;;;5459203;25;19998;-74
2024/04/10 02:08:08;;;;;;;7.18;1.30;;;9.50;99.90;;;;;;5440021;26;20535;-74
2024/04/10 02:10:33;;;;;;;8.57;2.40;;;9.50;99.90;;;;;;5447393;26;20015;-74
2024/04/10 02:12:59;;;;;;;11.20;1.83;;;9.50;99.90;;;;;;5430400;26;20018;-70
2024/04/10 02:15:25;;;;;;;11.25;1.67;;;9.50;99.90;;;;;;5448469;26;19998;-74
2024/04/10 02:17:50;;;;;;;10.43;1.60;;;9.50;99.90;;;;;;5449195;26;20011;-73
2024/04/10 02:20:16;;;;;;;7.38;1.92;;;9.50;99.90;;;;;;5448424;26;20015;-74
2024/04/10 02:22:42;;;;;;;7.10;1.70;;;9.50;99.90;;;;;;5437868;26;20002;-73
2024/04/10 02:25:08;;;;;;;15.48;1.50;;;9.50;99.90;;;;;;5446026;26;20003;-72
2024/04/10 02:27:33;;;;;;;10.70;1.45;;;9.50;99.90;;;;;;5427462;26;20475;-73
2024/04/10 02:29:59;;;;;;;12.82;1.15;;;9.50;99.90;;;;;;5428097;26;20014;-72
2024/04/10 02:32:25;;;;;;;18.88;3.53;;;9.50;99.90;;;;;;5450353;26;20387;-73
2024/04/10 02:34:50;;;;;;;8.38;1.05;;;9.50;99.90;;;;;;5442300;26;20340;-73
2024/04/10 02:37:16;;;;;;;10.43;2.03;;;9.50;99.90;;;;;;5437067;26;20031;-74
2024/04/10 02:39:42;;;;;;;10.05;1.98;;;9.50;99.90;;;;;;5448534;26;19994;-72
2024/04/10 02:42:07;;;;;;;11.10;1.83;;;9.50;99.90;;;;;;5444682;25;20007;-73
2024/04/10 02:44:33;;;;;;;5.38;1.55;;;9.50;99.90;;;;;;5456443;25;20075;-72
2024/04/10 02:46:58;;;;;;;8.05;2.15;;;9.60;99.90;;;;;;5442843;25;20000;-74
2024/04/10 02:49:24;;;;;;;19.08;3.22;;;9.50;99.90;;;;;;5437669;25;20090;-74
2024/04/10 02:51:49;;;;;;;7.32;2.10;;;9.60;99.90;;;;;;5442285;25;20344;-74
2024/04/10 02:54:15;;;;;;;7.78;1.35;;;9.50;99.90;;;;;;5452348;25;19995;-73
2024/04/10 02:56:41;;;;;;;7.68;1.27;;;9.50;99.90;;;;;;5440519;25;20009;-74
2024/04/10 02:59:07;;;;;;;12.95;2.28;;;9.50;99.90;;;;;;5446633;25;20005;-72
2024/04/10 03:01:33;;;;;;;2.97;0.88;;;9.50;99.90;;;;;;5465578;26;19998;-76
2024/04/10 03:03:59;;;;;;;8.25;1.92;;;9.40;99.90;;;;;;5452839;26;20862;-74
2024/04/10 03:06:24;;;;;;;13.90;1.75;;;9.40;99.90;;;;;;5454402;25;20428;-73
2024/04/10 03:08:50;;;;;;;13.18;2.45;;;9.40;99.90;;;;;;5447420;26;20011;-72
2024/04/10 03:11:18;;;;;;;8.75;1.40;;;9.40;99.90;;;;;;5454939;25;19995;-72
2024/04/10 03:13:44;;;;;;;11.00;1.75;;;9.40;99.90;;;;;;5444374;25;20076;-73
2024/04/10 03:16:10;;;;;;;11.18;1.70;;;9.40;99.90;;;;;;5429421;26;20472;-74
2024/04/10 03:18:36;;;;;;;12.25;1.70;;;9.40;99.90;;;;;;5435459;25;20047;-73
2024/04/10 03:21:02;;;;;;;13.40;2.03;;;9.40;99.90;;;;;;5450883;25;20005;-72
2024/04/10 03:23:27;;;;;;;10.90;1.60;;;9.40;99.90;;;;;;5450324;25;19994;-73
2024/04/10 03:26:08;;;;;;;10.18;1.25;;;9.40;99.90;;;;;;5443471;26;20340;-74
2024/04/10 03:28:33;;;;;;;9.85;1.70;;;9.40;99.90;;;;;;5447783;25;20451;-73
2024/04/10 03:31:00;;;;;;;8.23;2.33;;;9.40;99.90;;;;;;5442556;25;20011;-74
2024/04/10 03:33:26;;;;;;;7.45;1.58;;;9.40;99.90;;;;;;5448925;25;19998;-72
2024/04/10 03:35:53;;;;;;;7.47;1.77;;;9.30;99.90;;;;;;5447276;26;20022;-73
2024/04/10 03:38:18;;;;;;;5.68;1.23;;;9.30;99.90;;;;;;5453937;25;20182;-73
2024/04/10 03:40:44;;;;;;;9.40;1.35;;;9.30;99.90;;;;;;5453304;25;20696;-73
2024/04/10 03:43:10;;;;;;;10.13;1.77;;;9.30;99.90;;;;;;5439636;25;20435;-73
2024/04/10 03:45:36;;;;;;;6.60;1.52;;;9.30;99.90;;;;;;5460867;26;19997;-75
2024/04/10 03:48:02;;;;;;;10.73;1.90;;;9.40;99.90;;;;;;5436677;25;20460;-73
2024/04/10 03:50:28;;;;;;;10.95;2.28;;;9.30;99.90;;;;;;5462384;26;19998;-73
2024/04/10 03:52:53;;;;;;;4.82;1.45;;;9.40;99.90;;;;;;5443088;26;20023;-73
2024/04/10 03:55:19;;;;;;;10.80;1.40;;;9.40;99.90;;;;;;5450075;25;20071;-73
2024/04/10 03:57:45;;;;;;;8.05;1.70;;;9.40;99.90;;;;;;5461876;26;19995;-74
2024/04/10 04:00:11;;;;;;;9.88;2.50;;;9.40;99.90;;;;;;5460075;25;20430;-74
2024/04/10 04:02:36;;;;;;;12.10;2.35;;;9.30;99.90;;;;;;5449914;25;20006;-73
2024/04/10 04:05:02;;;;;;;6.70;1.85;;;9.30;99.90;;;;;;5447078;25;20050;-73
2024/04/10 04:07:28;;;;;;;10.75;1.40;;;9.30;99.90;;;;;;5424303;25;20030;-73
2024/04/10 04:09:53;;;;;;;11.75;2.03;;;9.30;99.90;;;;;;5443238;25;19998;-74
2024/04/10 04:12:19;;;;;;;6.78;1.20;;;9.30;99.90;;;;;;5439040;25;20025;-73
2024/04/10 04:14:44;;;;;;;7.05;2.10;;;9.30;99.90;;;;;;5424154;25;20011;-74
2024/04/10 04:17:10;;;;;;;7.70;1.73;;;9.30;99.90;;;;;;5449098;25;20504;-73
2024/04/10 04:19:36;;;;;;;4.55;0.90;;;9.30;99.90;;;;;;5456464;25;19997;-73
2024/04/10 04:22:01;;;;;;;6.22;1.38;;;9.30;99.90;;;;;;5443701;25;20021;-74
2024/04/10 04:24:27;;;;;;;9.68;1.25;;;9.30;99.90;;;;;;5459120;26;20335;-73
2024/04/10 04:26:52;;;;;;;7.60;1.10;;;9.30;99.90;;;;;;5455335;25;20013;-75
2024/04/10 04:29:18;;;;;;;7.25;1.20;;;9.30;99.90;;;;;;5458090;26;25015;-73
2024/04/10 04:31:44;;;;;;;4.82;1.20;;;9.30;99.90;;;;;;5449212;25;20448;-72
2024/04/10 04:34:12;;;;;;;3.85;1.10;;;9.30;99.90;;;;;;5453371;25;20542;-76
2024/04/10 04:36:39;;;;;;;10.23;1.50;;;9.30;99.90;;;;;;5453246;25;20443;-74
2024/04/10 04:39:07;;;;;;;6.07;1.50;;;9.30;99.90;;;;;;5454140;25;20773;-73
2024/04/10 04:41:33;;;;;;;8.98;1.77;;;9.30;99.90;;;;;;5459203;25;19994;-73
2024/04/10 04:43:59;;;;;;;12.63;1.90;;;9.30;99.90;;;;;;5432227;25;20011;-74
2024/04/10 04:46:25;;;;;;;9.02;1.65;;;9.30;99.90;;;;;;5448167;25;20328;-74
2024/04/10 04:48:50;;;;;;;6.70;1.25;;;9.20;99.90;;;;;;5452431;25;19998;-75
2024/04/10 04:51:16;;;;;;;11.43;1.52;;;9.20;99.90;;;;;;5423069;26;20007;-74
2024/04/10 04:53:42;;;;;;;8.35;1.70;;;9.20;99.90;;;;;;5458073;26;20019;-75
2024/04/10 04:56:08;;;;;;;7.47;1.70;;;9.20;99.90;;;;;;5458484;25;20003;-74
2024/04/10 04:58:33;;;;;;;7.85;1.05;;;9.10;99.90;;;;;;5465623;25;20071;-74
2024/04/10 05:00:59;;;;;;;12.90;1.23;;;9.10;99.90;;;;;;5443064;26;19995;-74
2024/04/10 05:06:09;;;;;;;9.60;1.65;;;9.20;99.90;;;;;;5426827;26;20073;-73
2024/04/10 05:08:35;;;;;;;9.65;1.88;;;9.20;99.90;;;;;;5446906;26;20014;-73
2024/04/10 05:11:08;;;;;;;11.65;1.00;;;9.20;99.90;;;;;;5465299;25;20447;-72
2024/04/10 05:13:35;;;;;;;8.32;1.45;;;9.20;99.90;;;;;;5438885;26;20006;-71
2024/04/10 05:16:01;;;;;;;8.57;0.90;;;9.20;99.90;;;;;;5445175;26;19994;-74
2024/04/10 05:18:27;;;;;;;8.93;1.70;;;9.20;99.90;;;;;;5425980;26;20006;-76
2024/04/10 05:20:52;;;;;;;8.38;1.33;;;9.20;99.90;;;;;;5461234;26;19998;-73
2024/04/10 05:23:18;;;;;;;17.40;1.25;;;9.20;99.90;;;;;;5448944;25;20010;-73
2024/04/10 05:25:45;;;;;;;6.13;1.50;;;9.30;99.90;;;;;;5452005;26;20034;-74
2024/04/10 05:28:11;;;;;;;9.40;1.40;;;9.30;99.90;;;;;;5452643;25;20005;-75
2024/04/10 05:30:37;;;;;;;11.18;1.23;;;9.30;99.90;;;;;;5443857;26;20798;-73
2024/04/10 05:33:03;;;;;;;7.07;1.05;;;9.30;99.90;;;;;;5443514;25;20011;-74
2024/04/10 05:35:28;;;;;;;11.60;1.88;;;9.30;99.90;;;;;;5434080;26;20423;-73
2024/04/10 05:37:55;;;;;;;3.85;1.25;;;9.40;99.90;;;;;;5446453;26;19998;-73
2024/04/10 05:40:21;;;;;;;10.10;1.63;;;9.40;99.90;;;;;;5439433;26;19998;-74
2024/04/10 05:42:46;;;;;;;8.05;1.98;;;9.40;99.90;;;;;;5436331;26;20041;-72
2024/04/10 05:45:14;;;;;;;10.25;2.05;;;9.50;99.90;;;;;;5446986;26;19995;-74
2024/04/10 05:47:42;;;;;;;8.13;1.63;;;9.50;99.90;;;;;;5435627;26;20071;-73
2024/04/10 05:50:09;;;;;;;8.23;1.50;;;9.50;99.90;;;;;;5437859;26;19991;-74
2024/04/10 05:52:35;;;;;;;9.05;1.58;;;9.50;99.90;;;;;;5447710;26;19998;-74
2024/04/10 05:55:00;;;;;;;9.25;1.30;;;9.50;99.90;;;;;;5422663;26;20046;-72
2024/04/10 05:57:27;;;;;;;5.57;1.58;;;9.50;99.90;;;;;;5445424;26;20006;-72
2024/04/10 05:59:57;;;;;;;8.32;1.10;;;9.50;99.90;;;;;;5446330;26;20016;-72
2024/04/10 06:02:23;;;;;;;7.43;1.50;;;9.50;99.90;;;;;;5440172;26;20602;-74
2024/04/10 06:04:52;;;;;;;5.22;1.02;;;9.60;99.90;;;;;;5445302;26;20399;-74
2024/04/10 06:07:18;;;;;;;5.18;1.83;;;9.60;99.90;;;;;;5442966;26;20004;-74
2024/04/10 06:09:44;;;;;;;5.38;1.33;;;9.60;99.90;;;;;;5445915;26;20034;-75
2024/04/10 06:12:10;;;;;;;6.40;1.55;;;9.70;99.90;;;;;;5439501;26;20011;-74
2024/04/10 06:14:36;;;;;;;12.27;1.20;;;9.80;99.90;;;;;;5451718;26;20375;-73
2024/04/10 06:17:01;;;;;;;6.43;1.20;;;10.30;99.90;;;;;;5444038;26;20003;-73
2024/04/10 06:19:27;;;;;;;5.50;1.02;;;10.90;99.90;;;;;;5457493;26;20075;-74
2024/04/10 06:21:53;;;;;;;6.30;0.82;;;11.10;99.90;;;;;;5449378;26;20000;-75
2024/04/10 06:24:21;;;;;;;8.73;1.85;;;11.10;99.90;;;;;;5443107;26;19996;-74
2024/04/10 06:26:46;;;;;;;5.20;1.50;;;11.10;99.90;;;;;;5450584;26;20066;-74
2024/04/10 06:29:12;;;;;;;5.88;1.00;;;11.10;99.90;;;;;;5450133;26;19999;-74
2024/04/10 06:31:39;;;;;;;6.70;1.52;;;11.60;99.90;;;;;;5461808;26;20006;-74
2024/04/10 06:34:05;;;;;;;3.30;0.77;;;12.60;99.90;;;;;;5442360;26;20348;-75
2024/04/10 06:36:31;;;;;;;13.35;1.50;;;13.50;99.90;;;;;;5451063;26;20577;-74
2024/04/10 06:38:56;;;;;;;6.15;0.85;;;13.80;99.90;;;;;;5451539;26;20006;-74
2024/04/10 06:41:22;;;;;;;9.57;1.38;;;14.10;99.90;;;;;;5445140;25;20049;-74
2024/04/10 06:43:48;;;;;;;9.13;1.02;;;14.60;99.90;;;;;;5442002;26;20093;-75
2024/04/10 06:46:16;;;;;;;5.53;1.33;;;15.10;99.90;;;;;;5438184;26;19994;-73
2024/04/10 06:48:41;;;;;;;9.52;1.52;;;15.60;99.90;;;;;;5446311;26;20096;-73
2024/04/10 06:51:07;;;;;;;6.32;0.88;;;16.00;99.90;;;;;;5448288;26;20022;-75
2024/04/10 06:53:33;;;;;;;11.43;1.25;;;16.30;99.90;;;;;;5446174;26;20093;-73
2024/04/10 06:56:00;;;;;;;9.15;0.82;;;16.50;99.90;;;;;;5449637;26;19994;-74
2024/04/10 06:58:28;;;;;;;5.25;0.95;;;16.50;99.90;;;;;;5439255;26;20003;-73
2024/04/10 07:01:07;;;;;;;8.85;1.10;;;16.40;99.90;;;;;;5450233;26;20067;-74
2024/04/10 07:03:39;;;;;;;9.32;1.42;;;15.90;99.90;;;;;;5452525;26;20122;-76
2024/04/10 07:06:07;;;;;;;8.68;1.30;;;15.50;99.90;;;;;;5453483;26;20013;-75
2024/04/10 07:08:33;;;;;;;7.25;1.50;;;15.00;99.90;;;;;;5444542;26;20013;-73
2024/04/10 07:10:59;;;;;;;9.63;1.10;;;14.70;99.90;;;;;;5449840;26;20452;-74
2024/04/10 07:13:25;;;;;;;8.13;1.73;;;14.40;99.90;;;;;;5455877;25;20133;-74
2024/04/10 07:16:02;;;;;;;5.50;1.40;;;14.20;99.90;;;;;;5451468;25;19994;-76
2024/04/10 07:18:31;;;;;;;9.32;1.77;;;14.10;99.90;;;;;;5446218;25;20445;-76
2024/04/10 07:21:05;;;;;;;3.42;0.75;;;13.90;99.90;;;;;;5454892;25;20321;-75
2024/04/10 07:23:32;;;;;;;4.70;1.30;;;13.90;99.90;;;;;;5445665;25;20014;-75
2024/04/10 07:26:15;;;;;;;3.92;0.90;;;13.80;99.90;;;;;;5450903;25;20052;-73
2024/04/10 07:28:50;;;;;;;3.80;0.80;;;13.70;99.90;;;;;;5442468;25;20013;-74
2024/04/10 07:31:20;;;;;;;7.28;0.80;;;13.70;99.90;;;;;;5443303;25;20448;-75
2024/04/10 07:33:47;;;;;;;6.50;0.97;;;13.70;99.90;;;;;;5449881;26;20017;-74
2024/04/10 07:36:14;;;;;;;10.63;2.05;;;13.70;99.90;;;;;;5445700;25;20258;-75
2024/04/10 07:38:41;;;;;;;11.35;1.15;;;13.70;99.90;;;;;;5450731;25;20655;-74
2024/04/10 07:41:07;;;;;;;4.72;0.82;;;13.60;99.90;;;;;;5446436;25;20013;-73
2024/04/10 07:43:34;;;;;;;6.45;1.00;;;13.60;99.90;;;;;;5452761;25;19998;-75
2024/04/10 07:46:14;;;;;;;3.42;0.50;;;13.50;99.90;;;;;;5439267;26;20003;-74
2024/04/10 07:48:40;;;;;;;4.93;0.83;;;13.60;99.90;;;;;;5446547;25;20001;-73
2024/04/10 07:51:08;;;;;;;8.60;1.45;;;13.60;99.90;;;;;;5453403;25;19998;-74
2024/04/10 07:53:35;;;;;;;6.82;0.82;;;13.60;99.90;;;;;;5447078;25;20009;-74
2024/04/10 07:56:02;;;;;;;7.35;1.08;;;13.80;99.90;;;;;;5446851;26;20021;-74
2024/04/10 07:58:29;;;;;;;5.38;0.93;;;13.80;99.90;;;;;;5458601;25;20081;-74
2024/04/10 08:00:57;;;;;;;6.97;0.88;;;14.00;99.90;;;;;;5462087;25;20086;-73
2024/04/10 08:03:26;;;;;;;6.72;1.13;;;14.10;99.90;;;;;;5452362;25;20009;-73
2024/04/10 08:05:52;;;;;;;6.70;1.33;;;14.20;99.90;;;;;;5459068;26;20888;-77
2024/04/10 08:08:18;;;;;;;10.63;1.42;;;14.40;99.90;;;;;;5448725;25;20013;-74
2024/04/10 08:10:44;;;;;;;8.60;1.42;;;14.60;99.90;;;;;;5450189;26;20007;-74
2024/04/10 08:13:10;;;;;;;8.45;1.27;;;14.60;99.90;;;;;;5454927;25;20007;-74
2024/04/10 08:15:37;;;;;;;9.32;1.00;;;14.40;99.90;;;;;;5466940;25;19998;-73
2024/04/10 08:18:03;;;;;;;9.43;1.13;;;14.10;99.90;;;;;;5449911;25;20026;-73
2024/04/10 08:20:29;;;;;;;4.07;0.70;;;13.90;99.90;;;;;;5448968;25;20018;-73
2024/04/10 08:22:54;;;;;;;6.88;1.00;;;13.80;99.90;;;;;;5450058;25;20002;-72
2024/04/10 08:25:20;;;;;;;6.13;1.20;;;14.00;99.90;;;;;;5460926;25;20006;-75
2024/04/10 08:27:45;;;;;;;1.92;0.52;;;14.10;99.90;;;;;;5459305;25;20005;-73
2024/04/10 08:30:11;;;;;;;4.90;0.70;;;14.10;99.90;;;;;;5449793;25;20003;-74
2024/04/10 08:32:37;;;;;;;4.53;0.60;;;14.00;99.90;;;;;;5460370;25;19998;-76
2024/04/10 08:35:04;;;;;;;11.60;1.40;;;13.90;99.90;;;;;;5453921;25;20082;-75
2024/04/10 08:37:30;;;;;;;9.05;1.00;;;13.90;99.90;;;;;;5463877;25;20006;-72
2024/04/10 08:39:56;;;;;;;4.72;1.20;;;13.90;99.90;;;;;;5454035;25;20064;-73
2024/04/10 08:42:23;;;;;;;8.82;1.67;;;14.30;99.90;;;;;;5467034;25;19998;-73
2024/04/10 08:44:51;;;;;;;5.30;1.13;;;14.50;99.90;;;;;;5462942;25;20007;-72
2024/04/10 08:47:18;;;;;;;4.18;0.80;;;14.80;99.90;;;;;;5459305;26;20014;-72
2024/04/10 08:49:44;;;;;;;4.00;0.63;;;14.70;99.90;;;;;;5451520;26;20010;-73
2024/04/10 08:52:11;;;;;;;4.65;0.77;;;14.80;99.90;;;;;;5461465;25;19998;-73
2024/04/10 08:54:38;;;;;;;7.68;1.02;;;14.90;99.90;;;;;;5454244;25;19999;-74
2024/04/10 08:57:04;;;;;;;7.93;1.13;;;15.10;99.90;;;;;;5456316;25;20013;-75
2024/04/10 08:59:30;;;;;;;3.38;0.57;;;15.20;99.90;;;;;;5457647;26;19998;-73
2024/04/10 09:01:57;;;;;;;7.55;0.50;;;15.20;99.90;;;;;;5452588;25;19999;-74
2024/04/10 09:04:24;;;;;;;3.58;1.08;;;15.10;99.90;;;;;;5446870;25;20074;-73
2024/04/10 09:07:03;;;;;;;6.88;0.80;;;14.80;99.90;;;;;;5456074;25;20002;-76
2024/04/10 09:09:29;;;;;;;3.72;0.55;;;14.80;99.90;;;;;;5443969;25;20010;-72
2024/04/10 09:11:54;;;;;;;4.78;0.50;;;14.80;99.90;;;;;;5457939;25;20002;-73
2024/04/10 09:14:20;;;;;;;7.35;0.75;;;14.70;99.90;;;;;;5453530;25;20028;-75
2024/04/10 09:16:46;;;;;;;4.22;1.00;;;14.70;99.90;;;;;;5451269;25;19995;-74
2024/04/10 09:19:16;;;;;;;3.15;0.50;;;14.60;99.90;;;;;;5438100;26;20072;-73
2024/04/10 09:21:55;;;;;;;3.88;0.52;;;14.60;99.90;;;;;;5451969;25;20015;-73
2024/04/10 09:24:25;;;;;;;2.83;0.63;;;14.50;99.90;;;;;;5446576;26;20368;-75
2024/04/10 09:26:50;;;;;;;5.15;0.52;;;14.60;99.90;;;;;;5458023;26;20447;-74
2024/04/10 09:29:19;;;;;;;6.47;0.82;;;14.70;99.90;;;;;;5452435;26;20003;-75
2024/04/10 09:31:47;;;;;;;5.00;0.38;;;14.80;99.90;;;;;;5451280;25;20043;-74
2024/04/10 09:34:19;;;;;;;2.80;0.85;;;14.70;99.90;;;;;;5464263;25;20014;-74
2024/04/10 09:36:46;;;;;;;4.28;0.60;;;14.80;99.90;;;;;;5454711;26;20010;-74
2024/04/10 09:39:12;;;;;;;3.38;0.70;;;15.00;99.80;;;;;;5462897;25;20050;-74
2024/04/10 09:41:41;;;;;;;6.35;1.30;;;15.00;99.90;;;;;;5456549;26;20543;-77
2024/04/10 09:44:10;;;;;;;6.15;0.50;;;15.00;99.90;;;;;;5448771;26;20011;-75
2024/04/10 09:46:37;;;;;;;4.50;0.70;;;14.80;99.90;;;;;;5457722;26;20325;-74
2024/04/10 09:49:12;;;;;;;3.92;0.55;;;14.80;99.90;;;;;;5466212;25;20010;-74
2024/04/10 09:51:42;;;;;;;3.60;1.17;;;14.90;99.90;;;;;;5455953;26;20027;-76
2024/04/10 09:54:09;;;;;;;3.35;0.35;;;14.90;99.50;;;;;;5453421;26;20096;-75
2024/04/10 09:56:37;;;;;;;2.75;0.40;;;15.00;99.30;;;;;;5458019;25;20468;-74
2024/04/10 09:59:08;;;;;;;0.98;0.20;;;15.10;99.40;;;;;;5467545;25;20013;-75
2024/04/10 10:01:35;;;;;;;17.00;0.65;;;15.30;98.90;;;;;;5458177;25;20014;-74
2024/04/10 10:04:00;;;;;;;4.18;0.77;;;15.40;98.80;;;;;;5465962;25;20006;-70
2024/04/10 10:06:28;;;;;;;10.43;1.02;;;15.20;97.40;;;;;;5455142;26;20026;-71
2024/04/10 10:08:54;;;;;;;4.15;0.60;;;15.10;97.70;;;;;;5455111;26;20003;-74
2024/04/10 10:11:20;;;;;;;2.20;0.30;;;15.20;99.00;;;;;;5462063;25;20053;-73
2024/04/10 10:14:00;;;;;;;2.92;0.30;;;15.30;97.60;;;;;;5461718;25;20083;-73
2024/04/10 10:16:27;;;;;;;1.90;0.35;;;15.40;98.00;;;;;;5464018;25;20401;-74
2024/04/10 10:18:55;;;;;;;3.70;0.57;;;15.50;98.50;;;;;;5452618;26;20010;-75
2024/04/10 10:21:22;;;;;;;4.43;0.30;;;15.70;98.00;;;;;;5460684;26;20038;-75
2024/04/10 10:23:56;;;;;;;1.13;0.17;;;15.70;97.00;;;;;;5468262;25;20010;-72
2024/04/10 10:26:21;;;;;;;2.90;0.68;;;15.70;95.30;;;;;;5456521;25;24651;-73
2024/04/10 10:28:47;;;;;;;2.45;0.22;;;15.60;96.40;;;;;;5465455;25;20083;-74
2024/04/10 10:31:19;;;;;;;2.13;0.35;;;15.70;96.20;;;;;;5463935;25;20010;-75
2024/04/10 10:33:48;;;;;;;6.90;0.38;;;15.70;96.80;;;;;;5465732;25;20034;-74
2024/04/10 10:36:14;;;;;;;2.05;0.40;;;15.70;96.40;;;;;;5457140;25;19999;-75
2024/04/10 10:38:40;;;;;;;2.25;0.43;;;15.80;95.90;;;;;;5459303;26;20080;-75
2024/04/10 10:41:09;;;;;;;5.05;0.47;;;15.70;96.00;;;;;;5461119;25;20002;-73
2024/04/10 10:43:36;;;;;;;3.35;0.40;;;15.80;95.60;;;;;;5454831;26;19998;-75
2024/04/10 10:46:03;;;;;;;5.50;0.52;;;15.90;96.70;;;;;;5463392;26;20002;-73
2024/04/10 10:48:30;;;;;;;5.18;0.40;;;15.90;96.50;;;;;;5460872;26;20072;-73
2024/04/10 10:50:57;;;;;;;1.55;0.20;;;15.90;95.70;;;;;;5447193;26;20080;-75
2024/04/10 10:53:23;;;;;;;5.53;0.40;;;16.00;94.60;;;;;;5446771;25;20021;-74
2024/04/10 10:55:51;;;;;;;1.52;0.22;;;15.90;94.50;;;;;;5464784;25;20042;-73
2024/04/10 10:58:17;;;;;;;6.32;0.43;;;15.80;94.80;;;;;;5456909;26;20340;-74
2024/04/10 11:00:42;;;;;;;3.50;0.50;;;15.70;94.50;;;;;;5453664;26;19999;-74
2024/04/10 11:03:10;;;;;;;2.00;0.40;;;15.80;95.30;;;;;;5465765;25;20112;-73
2024/04/10 11:05:36;;;;;;;6.57;0.65;;;15.80;94.80;;;;;;5471573;25;20046;-72
2024/04/10 11:08:02;;;;;;;5.43;0.50;;;15.80;94.30;;;;;;5456636;25;20440;-73
2024/04/10 11:10:29;;;;;;;7.00;0.70;;;15.70;94.20;;;;;;5459473;25;20078;-71
2024/04/10 11:13:02;;;;;;;2.78;0.20;;;15.60;93.80;;;;;;5472763;26;20710;-73
2024/04/10 11:15:28;;;;;;;2.38;0.13;;;15.60;94.70;;;;;;5443737;26;20015;-73
2024/04/10 11:18:04;;;;;;;3.65;0.40;;;15.60;94.60;;;;;;5463458;26;19999;-74
2024/04/10 11:20:31;;;;;;;7.78;0.60;;;15.70;95.10;;;;;;5449498;26;20015;-73
2024/04/10 11:23:01;;;;;;;2.38;0.22;;;15.60;94.00;;;;;;5459659;26;20767;-74
2024/04/10 11:25:29;;;;;;;4.40;0.35;;;15.60;94.40;;;;;;5447785;26;20018;-73
2024/04/10 11:27:56;;;;;;;2.03;0.32;;;15.50;93.00;;;;;;5463322;26;19998;-73
2024/04/10 11:30:22;;;;;;;2.65;0.30;;;15.50;93.90;;;;;;5459789;25;20047;-74
2024/04/10 11:32:47;;;;;;;2.38;0.40;;;15.50;94.10;;;;;;5461398;26;20011;-74
2024/04/10 11:35:13;;;;;;;2.55;0.20;;;15.40;93.50;;;;;;5452413;26;20088;-73
2024/04/10 11:37:42;;;;;;;10.48;0.55;;;15.40;94.30;;;;;;5453744;25;19998;-76
2024/04/10 11:40:11;;;;;;;3.45;0.30;;;15.30;94.30;;;;;;5451511;26;20013;-73
2024/04/10 11:42:38;;;;;;;1.55;0.20;;;15.40;94.60;;;;;;5455067;25;20000;-72
2024/04/10 11:45:07;;;;;;;2.03;0.38;;;15.40;94.30;;;;;;5465219;25;20034;-74
2024/04/10 11:47:33;;;;;;;2.97;0.30;;;15.30;93.70;;;;;;5466939;25;20432;-75
2024/04/10 11:49:59;;;;;;;1.45;0.20;;;15.30;94.40;;;;;;5464431;26;19998;-75
2024/04/10 11:52:24;;;;;;;2.97;0.35;;;15.40;94.50;;;;;;5457408;26;20014;-74
2024/04/10 11:54:50;;;;;;;1.90;0.35;;;15.40;94.50;;;;;;5464805;25;20006;-74
2024/04/10 11:57:16;;;;;;;7.80;0.30;;;15.40;94.30;;;;;;5461280;25;19998;-74
2024/04/10 11:59:41;;;;;;;2.25;0.30;;;15.50;94.50;;;;;;5460945;25;20440;-74
2024/04/10 12:02:07;;;;;;;4.05;0.22;;;15.50;94.20;;;;;;5457407;25;20002;-73
2024/04/10 12:04:33;;;;;;;1.75;0.10;;;15.50;94.20;;;;;;5463705;25;20013;-72
2024/04/10 12:06:58;;;;;;;2.65;0.25;;;15.40;94.20;;;;;;5465081;26;20076;-73
2024/04/10 12:09:25;;;;;;;5.50;0.30;;;15.40;94.10;;;;;;5451399;25;20009;-74
2024/04/10 12:11:51;;;;;;;1.15;0.20;;;15.30;93.90;;;;;;5464371;25;20095;-72
2024/04/10 12:14:17;;;;;;;2.88;0.98;;;15.30;93.90;;;;;;5465478;25;20357;-73
2024/04/10 12:16:44;;;;;;;5.53;0.38;;;15.30;94.40;;;;;;5459192;26;20077;-73
2024/04/10 12:19:10;;;;;;;1.65;0.35;;;15.30;94.50;;;;;;5462961;25;20234;-73
2024/04/10 12:21:37;;;;;;;1.85;0.28;;;15.30;94.50;;;;;;5451269;26;20448;-74
2024/04/10 12:24:04;;;;;;;1.55;0.30;;;15.40;94.30;;;;;;5460204;25;20452;-73
2024/04/10 12:26:33;;;;;;;2.88;0.20;;;15.30;93.10;;;;;;5463071;26;20002;-75
2024/04/10 12:28:59;;;;;;;2.85;0.65;;;15.30;93.30;;;;;;5456812;26;20046;-74
2024/04/10 12:31:25;;;;;;;4.07;0.35;;;15.30;93.70;;;;;;5457042;25;20082;-75
2024/04/10 12:33:54;;;;;;;2.25;0.30;;;15.20;93.60;;;;;;5459500;25;20451;-74
2024/04/10 12:39:06;;;;;;;3.53;0.20;;;15.10;93.30;;;;;;5461018;25;20014;-72
2024/04/10 12:41:31;;;;;;;2.25;0.47;;;15.10;93.00;;;;;;5461143;26;20045;-74
2024/04/10 12:44:02;;;;;;;4.82;0.47;;;15.10;93.00;;;;;;5458833;25;20021;-74
2024/04/10 12:46:29;;;;;;;2.13;0.25;;;15.00;93.20;;;;;;5460617;25;20014;-75
2024/04/10 12:48:54;;;;;;;1.33;0.50;;;15.00;93.70;;;;;;5453316;25;20099;-74
2024/04/10 12:51:20;;;;;;;1.45;0.40;;;15.00;93.80;;;;;;5458456;25;21746;-75
2024/04/10 12:53:46;;;;;;;3.53;0.30;;;15.00;94.20;;;;;;5457246;26;20409;-75